Esther, Alberta

Past 24 Hour Conditions

This table is a summary of hourly weather conditions for the past 24 hours. This summary includes the following parameters: temperature, humidity, dew point, wind speed and direction, air pressure, visibility and/or wind chill and humidex.
Date / Time
(MDT)
Conditions Temp (°F) Humidity (%) Dew Point (°F) Wind (mph) Pressure (inches) Visibility (miles)
22 July 2014
9:00 N/A 67 62 53 E 5 30.2 N/A
8:00 N/A 59 81 53 calm 30.2 N/A
7:00 N/A 55 88 52 calm 30.2 N/A
6:00 N/A 47   93 45 calm 30.2 N/A
5:00 N/A 50 93 48 calm 30.2 N/A
4:00 N/A 50 93 48 ENE 2 30.2 N/A
3:00 N/A 50 91 47 calm 30.2 N/A
2:00 N/A 51 90 49 calm 30.2 N/A
1:00 N/A 55 89 51 S 2 30.1 N/A
00:00 N/A 56 85 51 SSE 3 30.1 N/A
21 July 2014
23:00 N/A 56 85 52 SE 5 30.1 N/A
22:00 N/A 56 82 50 ENE 3 30.1 N/A
21:00 N/A 63 71 53 calm 30.1 N/A
20:00 N/A 68 54 51 N 2 30.0 N/A
19:00 N/A 70   49 50 NNW 3 30.0 N/A
18:00 N/A 70   45 48 E 4 30.0 N/A
17:00 N/A 66 57 51 SE 4 30.0 N/A
16:00 N/A 68 55 51 WNW 3 30.0 N/A
15:00 N/A 69 49 49 NNW 7 30.0 N/A
14:00 N/A 69 42 45 NE 4 29.9 N/A
13:00 N/A 70   42 46 N 5 29.9 N/A
12:00 N/A 69 48 49 E 2 29.9 N/A
11:00 N/A 68 46 46 calm 29.9 N/A
10:00 N/A 65 60 51 ENE 4 29.9 N/A
9:00 N/A 60 77 53 ESE 5 29.9 N/A
N/A
Not available
 ↑ 
Highest temperature
 ↓ 
Lowest temperature

If you require additional historical weather information, please visit Climate Data Online.